Time;durP1;ratioP1;P1;durP2;ratioP2;P2;SDS_P1;SDS_P2;PMS_P1;PMS_P2;Temp;Humidity;BMP_temperature;BMP_pressure;BME280_temperature;BME280_humidity;BME280_pressure;Samples;Min_cycle;Max_cycle;Signal;HPM_P1;HPM_P2
2021/05/02 00:01:40;;;;;;;9.20;7.30;;;;;;;;;;4991006;28;20446;-81
2021/05/02 00:04:07;;;;;;;8.73;7.17;;;;;;;;;;5011900;28;20438;-80
2021/05/02 00:06:34;;;;;;;10.03;7.60;;;;;;;;;;4994922;28;20447;-82
2021/05/02 00:09:02;;;;;;;10.20;7.67;;;;;;;;;;5012094;28;20485;-81
2021/05/02 00:11:28;;;;;;;10.93;8.10;;;;;;;;;;5012630;28;20454;-80
2021/05/02 00:13:55;;;;;;;10.40;8.50;;;;;;;;;;5014204;28;20931;-80
2021/05/02 00:16:22;;;;;;;8.70;7.80;;;;;;;;;;5014343;28;20452;-78
2021/05/02 00:18:49;;;;;;;9.60;8.60;;;;;;;;;;5014425;28;20227;-80
2021/05/02 00:21:16;;;;;;;10.47;8.27;;;;;;;;;;5011869;28;20655;-81
2021/05/02 00:23:43;;;;;;;9.23;8.20;;;;;;;;;;5008813;28;20487;-81
2021/05/02 00:26:12;;;;;;;9.02;7.80;;;;;;;;;;5011013;28;20443;-79
2021/05/02 00:28:39;;;;;;;10.23;7.60;;;;;;;;;;5012081;28;20306;-80
2021/05/02 00:31:08;;;;;;;11.93;8.82;;;;;;;;;;5012105;28;20532;-77
2021/05/02 00:33:35;;;;;;;12.77;8.55;;;;;;;;;;5011882;28;20206;-81
2021/05/02 00:36:02;;;;;;;11.00;9.05;;;;;;;;;;5014090;28;20659;-86
2021/05/02 00:38:29;;;;;;;11.20;9.25;;;;;;;;;;4996601;28;20232;-81
2021/05/02 00:40:57;;;;;;;11.43;9.70;;;;;;;;;;5013619;28;20199;-77
2021/05/02 00:43:31;;;;;;;12.40;8.90;;;;;;;;;;5012083;28;20255;-79
2021/05/02 00:46:02;;;;;;;10.95;9.32;;;;;;;;;;5008582;28;20653;-81
2021/05/02 00:48:31;;;;;;;11.00;9.10;;;;;;;;;;4993054;28;20214;-80
2021/05/02 00:51:02;;;;;;;12.13;9.63;;;;;;;;;;5011407;28;20280;-81
2021/05/02 00:53:35;;;;;;;12.05;9.20;;;;;;;;;;4994523;28;20194;-79
2021/05/02 00:56:08;;;;;;;13.60;10.90;;;;;;;;;;5011712;28;20720;-82
2021/05/02 00:58:43;;;;;;;13.07;10.35;;;;;;;;;;5013639;28;20217;-77
2021/05/02 01:01:13;;;;;;;12.75;10.27;;;;;;;;;;5014434;28;20256;-81
2021/05/02 01:03:44;;;;;;;12.35;9.70;;;;;;;;;;5013467;28;20202;-81
2021/05/02 01:06:13;;;;;;;14.05;10.30;;;;;;;;;;5010382;28;20205;-79
2021/05/02 01:08:40;;;;;;;12.50;9.65;;;;;;;;;;5007291;28;20758;-80
2021/05/02 01:11:11;;;;;;;12.75;10.07;;;;;;;;;;5010808;28;20378;-78
2021/05/02 01:13:45;;;;;;;14.35;10.43;;;;;;;;;;4993839;28;20208;-82
2021/05/02 01:16:14;;;;;;;15.35;10.88;;;;;;;;;;5011159;28;20227;-80
2021/05/02 01:18:42;;;;;;;12.48;9.45;;;;;;;;;;5011688;28;20217;-82
2021/05/02 01:21:10;;;;;;;16.10;10.73;;;;;;;;;;5013310;28;20201;-78
2021/05/02 01:23:38;;;;;;;16.88;11.73;;;;;;;;;;5012956;28;20254;-78
2021/05/02 01:26:05;;;;;;;13.25;10.05;;;;;;;;;;5012898;28;20200;-78
2021/05/02 01:28:31;;;;;;;15.45;11.15;;;;;;;;;;5009307;28;20223;-80
2021/05/02 01:30:58;;;;;;;16.10;10.82;;;;;;;;;;5007544;28;20605;-78
2021/05/02 01:33:25;;;;;;;14.65;12.65;;;;;;;;;;5010119;28;20192;-77
2021/05/02 01:35:52;;;;;;;13.27;10.60;;;;;;;;;;5010510;28;20664;-80
2021/05/02 01:38:20;;;;;;;17.15;13.00;;;;;;;;;;5010636;28;20243;-77
2021/05/02 01:40:48;;;;;;;18.98;12.75;;;;;;;;;;5011260;28;20201;-83
2021/05/02 01:43:15;;;;;;;14.95;11.23;;;;;;;;;;5012455;28;20286;-80
2021/05/02 01:45:42;;;;;;;14.35;11.50;;;;;;;;;;5012830;28;20200;-81
2021/05/02 01:48:09;;;;;;;15.35;11.52;;;;;;;;;;5012512;28;20220;-80
2021/05/02 01:50:39;;;;;;;17.08;12.02;;;;;;;;;;5009321;28;20188;-78
2021/05/02 01:53:06;;;;;;;17.42;12.68;;;;;;;;;;4988501;28;20931;-76
2021/05/02 01:55:34;;;;;;;15.93;12.52;;;;;;;;;;5009897;28;20235;-78
2021/05/02 01:58:02;;;;;;;17.23;11.13;;;;;;;;;;5009975;28;20220;-80
2021/05/02 02:00:40;;;;;;;15.27;12.65;;;;;;;;;;5010205;28;20193;-77
2021/05/02 02:03:08;;;;;;;18.00;12.73;;;;;;;;;;5011071;28;20551;-78
2021/05/02 02:05:35;;;;;;;18.75;13.68;;;;;;;;;;5011952;28;20202;-77
2021/05/02 02:08:03;;;;;;;19.42;13.73;;;;;;;;;;5012015;28;20739;-78
2021/05/02 02:10:32;;;;;;;16.90;12.30;;;;;;;;;;5012130;28;20197;-80
2021/05/02 02:12:59;;;;;;;18.75;12.85;;;;;;;;;;5008576;28;20193;-77
2021/05/02 02:15:27;;;;;;;17.10;12.38;;;;;;;;;;5007006;28;20226;-78
2021/05/02 02:17:54;;;;;;;16.90;12.23;;;;;;;;;;5009022;28;20239;-78
2021/05/02 02:20:22;;;;;;;18.33;13.38;;;;;;;;;;5009678;28;20197;-77
2021/05/02 02:22:51;;;;;;;17.17;12.23;;;;;;;;;;5009604;28;20191;-78
2021/05/02 02:25:19;;;;;;;17.67;12.93;;;;;;;;;;5009040;28;20258;-80
2021/05/02 02:27:47;;;;;;;20.60;12.88;;;;;;;;;;5006259;28;20220;-80
2021/05/02 02:30:14;;;;;;;19.88;12.35;;;;;;;;;;5008343;28;20196;-81
2021/05/02 02:32:45;;;;;;;17.17;11.25;;;;;;;;;;5009484;28;20209;-79
2021/05/02 02:35:14;;;;;;;14.68;11.25;;;;;;;;;;5009373;28;20223;-76
2021/05/02 02:37:44;;;;;;;17.75;12.60;;;;;;;;;;5009340;28;20217;-78
2021/05/02 02:40:11;;;;;;;17.98;12.68;;;;;;;;;;4991470;28;20200;-80
2021/05/02 02:42:40;;;;;;;17.52;11.70;;;;;;;;;;5006072;28;20255;-78
2021/05/02 02:45:09;;;;;;;16.40;11.75;;;;;;;;;;5008733;28;20246;-80
2021/05/02 02:47:37;;;;;;;17.05;13.73;;;;;;;;;;5009233;28;20227;-80
2021/05/02 02:50:07;;;;;;;16.83;12.02;;;;;;;;;;5009014;28;20208;-80
2021/05/02 02:52:40;;;;;;;16.88;11.63;;;;;;;;;;4992014;28;20260;-83
2021/05/02 02:55:07;;;;;;;18.65;12.07;;;;;;;;;;5007191;28;20228;-80
2021/05/02 02:57:38;;;;;;;16.75;12.57;;;;;;;;;;4987396;28;20218;-81
2021/05/02 03:00:06;;;;;;;16.02;12.70;;;;;;;;;;5009028;28;20715;-79
2021/05/02 03:02:36;;;;;;;16.83;11.25;;;;;;;;;;5008677;28;20197;-82
2021/05/02 03:05:03;;;;;;;16.80;12.85;;;;;;;;;;4992056;28;20197;-78
2021/05/02 03:07:32;;;;;;;18.13;13.35;;;;;;;;;;4992682;28;20200;-78
2021/05/02 03:10:00;;;;;;;19.73;13.50;;;;;;;;;;5006279;28;20244;-79
2021/05/02 03:12:28;;;;;;;15.85;12.32;;;;;;;;;;4987679;28;20311;-80
2021/05/02 03:14:55;;;;;;;18.13;13.07;;;;;;;;;;5009033;28;20232;-79
2021/05/02 03:17:22;;;;;;;15.88;11.35;;;;;;;;;;5010969;28;20610;-81
2021/05/02 03:19:51;;;;;;;18.35;12.77;;;;;;;;;;4995494;28;20207;-81
2021/05/02 03:22:24;;;;;;;19.08;14.00;;;;;;;;;;5013501;28;20206;-80
2021/05/02 03:24:52;;;;;;;20.77;14.40;;;;;;;;;;4991233;28;20194;-78
2021/05/02 03:27:19;;;;;;;15.80;13.07;;;;;;;;;;4992824;28;20208;-78
2021/05/02 03:29:48;;;;;;;18.02;13.35;;;;;;;;;;5012636;28;20603;-80
2021/05/02 03:32:15;;;;;;;20.77;13.27;;;;;;;;;;5012576;28;20193;-77
2021/05/02 03:34:43;;;;;;;16.88;13.02;;;;;;;;;;5012791;28;20575;-82
2021/05/02 03:37:12;;;;;;;18.30;12.50;;;;;;;;;;5011295;28;20210;-79
2021/05/02 03:39:39;;;;;;;20.00;14.48;;;;;;;;;;5009381;28;20193;-78
2021/05/02 03:42:07;;;;;;;18.10;14.48;;;;;;;;;;5012317;28;20210;-80
2021/05/02 03:44:34;;;;;;;25.40;14.40;;;;;;;;;;5012603;28;20202;-79
2021/05/02 03:47:00;;;;;;;19.40;14.88;;;;;;;;;;5013298;28;20195;-79
2021/05/02 03:49:30;;;;;;;19.10;13.52;;;;;;;;;;5005434;28;20224;-80
2021/05/02 03:51:57;;;;;;;20.50;14.00;;;;;;;;;;5013926;28;20304;-80
2021/05/02 03:54:24;;;;;;;20.83;15.10;;;;;;;;;;5014554;28;20223;-78
2021/05/02 03:56:52;;;;;;;19.38;14.18;;;;;;;;;;5014367;28;20285;-79
2021/05/02 03:59:20;;;;;;;16.23;13.45;;;;;;;;;;5012377;28;20216;-81
2021/05/02 04:01:49;;;;;;;17.85;14.10;;;;;;;;;;5009052;28;20193;-80
2021/05/02 04:04:17;;;;;;;23.02;15.50;;;;;;;;;;4994485;28;20190;-78
2021/05/02 04:06:43;;;;;;;21.00;15.23;;;;;;;;;;4994912;28;20200;-80
2021/05/02 04:09:13;;;;;;;18.88;13.70;;;;;;;;;;5011881;28;20251;-81
2021/05/02 04:11:40;;;;;;;19.20;14.38;;;;;;;;;;5012535;28;20220;-83
2021/05/02 04:14:07;;;;;;;16.65;13.85;;;;;;;;;;4997153;28;20207;-82
2021/05/02 04:16:35;;;;;;;19.40;13.63;;;;;;;;;;5014514;28;20239;-78
2021/05/02 04:19:02;;;;;;;17.73;13.88;;;;;;;;;;5014391;28;20471;-81
2021/05/02 04:21:29;;;;;;;20.25;13.30;;;;;;;;;;5011710;28;20194;-80
2021/05/02 04:23:56;;;;;;;22.05;14.35;;;;;;;;;;5008252;28;20264;-78
2021/05/02 04:26:22;;;;;;;18.77;13.95;;;;;;;;;;5011121;28;20202;-80
2021/05/02 04:28:49;;;;;;;22.00;13.35;;;;;;;;;;5010989;28;20218;-80
2021/05/02 04:31:16;;;;;;;18.13;13.73;;;;;;;;;;5012103;28;20198;-80
2021/05/02 04:33:44;;;;;;;21.73;15.57;;;;;;;;;;5011913;28;20204;-80
2021/05/02 04:36:11;;;;;;;19.60;14.88;;;;;;;;;;5013844;28;20234;-78
2021/05/02 04:38:38;;;;;;;22.17;14.95;;;;;;;;;;5013834;28;20221;-77
2021/05/02 04:41:05;;;;;;;21.27;14.90;;;;;;;;;;5013943;28;20205;-79
2021/05/02 04:43:32;;;;;;;18.25;13.82;;;;;;;;;;5011745;28;20694;-80
2021/05/02 04:45:59;;;;;;;19.10;13.75;;;;;;;;;;5008168;28;20200;-80
2021/05/02 04:48:25;;;;;;;21.85;15.07;;;;;;;;;;5010367;28;20694;-79
2021/05/02 04:50:53;;;;;;;20.23;13.23;;;;;;;;;;5011344;28;20259;-77
2021/05/02 04:53:20;;;;;;;19.88;13.05;;;;;;;;;;5012046;28;20205;-80
2021/05/02 04:55:47;;;;;;;17.25;12.45;;;;;;;;;;5011664;28;20225;-81
2021/05/02 04:58:14;;;;;;;18.13;12.43;;;;;;;;;;5013824;28;20694;-79
2021/05/02 05:00:41;;;;;;;15.88;12.90;;;;;;;;;;5013652;28;20288;-81
2021/05/02 05:03:07;;;;;;;20.08;12.60;;;;;;;;;;5014225;28;20201;-80
2021/05/02 05:05:34;;;;;;;19.58;12.65;;;;;;;;;;5014969;28;20211;-81
2021/05/02 05:08:03;;;;;;;21.98;13.88;;;;;;;;;;5008903;28;20242;-83
2021/05/02 05:10:30;;;;;;;16.13;11.43;;;;;;;;;;5010289;28;20256;-79
2021/05/02 05:12:56;;;;;;;15.80;12.32;;;;;;;;;;5011841;28;20247;-79
2021/05/02 05:15:23;;;;;;;18.25;12.20;;;;;;;;;;5011218;28;20272;-81
2021/05/02 05:17:50;;;;;;;16.10;11.32;;;;;;;;;;5011567;28;20219;-79
2021/05/02 05:20:17;;;;;;;17.70;12.40;;;;;;;;;;5012858;28;20291;-80
2021/05/02 05:22:44;;;;;;;15.05;11.55;;;;;;;;;;5013234;28;20232;-81
2021/05/02 05:25:12;;;;;;;15.40;12.02;;;;;;;;;;5013003;28;20232;-81
2021/05/02 05:27:39;;;;;;;16.93;11.20;;;;;;;;;;5011436;28;20213;-78
2021/05/02 05:30:09;;;;;;;17.27;11.00;;;;;;;;;;5007411;28;20452;-81
2021/05/02 05:32:35;;;;;;;13.18;9.80;;;;;;;;;;5009540;28;20198;-79
2021/05/02 05:35:02;;;;;;;14.30;10.90;;;;;;;;;;5010419;28;20241;-81
2021/05/02 05:37:29;;;;;;;15.25;10.68;;;;;;;;;;4997935;28;20743;-83
2021/05/02 05:39:56;;;;;;;15.23;10.30;;;;;;;;;;4992734;28;20214;-81
2021/05/02 05:42:24;;;;;;;12.00;8.80;;;;;;;;;;5011628;28;20572;-83
2021/05/02 05:44:50;;;;;;;14.73;9.83;;;;;;;;;;5006604;28;20199;-80
2021/05/02 05:47:17;;;;;;;13.07;9.50;;;;;;;;;;5007779;28;20501;-79
2021/05/02 05:49:44;;;;;;;15.60;9.47;;;;;;;;;;5010138;28;20442;-79
2021/05/02 05:52:11;;;;;;;11.70;8.67;;;;;;;;;;5010380;28;20445;-82
2021/05/02 05:54:39;;;;;;;12.53;8.40;;;;;;;;;;5010382;28;20494;-81
2021/05/02 05:57:05;;;;;;;11.20;6.90;;;;;;;;;;4992541;28;20995;-79
2021/05/02 05:59:33;;;;;;;13.07;9.50;;;;;;;;;;5011570;28;20454;-81
2021/05/02 06:02:00;;;;;;;9.90;7.17;;;;;;;;;;5008330;28;20840;-78
2021/05/02 06:04:27;;;;;;;10.13;7.17;;;;;;;;;;5007180;28;20434;-80
2021/05/02 06:06:54;;;;;;;8.97;6.70;;;;;;;;;;5008707;28;20846;-79
2021/05/02 06:09:20;;;;;;;13.73;7.93;;;;;;;;;;5009153;28;20494;-83
2021/05/02 06:11:48;;;;;;;6.90;6.10;;;;;;;;;;5010249;28;20443;-80
2021/05/02 06:14:14;;;;;;;10.73;7.30;;;;;;;;;;5010390;28;20450;-79
2021/05/02 06:16:42;;;;;;;7.63;6.30;;;;;;;;;;5006255;28;20449;-82
2021/05/02 06:19:09;;;;;;;10.53;7.00;;;;;;;;;;5007390;28;20453;-81
2021/05/02 06:21:36;;;;;;;13.10;6.70;;;;;;;;;;5009698;28;20451;-79
2021/05/02 06:24:05;;;;;;;11.20;6.80;;;;;;;;;;5004781;28;20959;-81
2021/05/02 06:26:31;;;;;;;7.20;5.53;;;;;;;;;;5007822;28;20444;-85
2021/05/02 06:28:58;;;;;;;9.77;6.47;;;;;;;;;;5006291;28;20308;-80
2021/05/02 06:31:25;;;;;;;9.27;7.13;;;;;;;;;;5006189;28;20542;-84
2021/05/02 06:33:53;;;;;;;7.77;6.00;;;;;;;;;;5008703;28;20529;-83
2021/05/02 06:36:20;;;;;;;7.23;5.53;;;;;;;;;;5009459;28;20489;-85
2021/05/02 06:38:46;;;;;;;6.90;5.50;;;;;;;;;;5009480;28;20864;-79
2021/05/02 06:41:13;;;;;;;10.90;5.97;;;;;;;;;;5010503;28;20466;-76
2021/05/02 06:43:40;;;;;;;9.97;5.90;;;;;;;;;;5011730;28;20443;-81
2021/05/02 06:46:06;;;;;;;8.35;5.95;;;;;;;;;;5011288;28;20454;-80
2021/05/02 06:48:33;;;;;;;7.78;5.63;;;;;;;;;;5011400;28;20213;-85
2021/05/02 06:51:01;;;;;;;8.90;5.97;;;;;;;;;;5010523;28;20195;-81
2021/05/02 06:53:28;;;;;;;15.50;6.00;;;;;;;;;;5005547;28;20445;-81
2021/05/02 06:55:55;;;;;;;9.33;5.57;;;;;;;;;;5007566;28;20225;-82
2021/05/02 06:58:22;;;;;;;6.70;4.83;;;;;;;;;;5008949;28;20473;-80
2021/05/02 07:00:49;;;;;;;7.40;6.00;;;;;;;;;;5009045;28;20456;-80
2021/05/02 07:03:16;;;;;;;11.17;5.90;;;;;;;;;;5009886;28;20936;-79
2021/05/02 07:05:43;;;;;;;10.47;5.60;;;;;;;;;;5010444;28;20854;-81
2021/05/02 07:08:13;;;;;;;8.40;5.33;;;;;;;;;;5007247;28;20474;-74
2021/05/02 07:10:40;;;;;;;9.57;5.10;;;;;;;;;;5004336;28;20618;-78
2021/05/02 07:13:06;;;;;;;8.50;5.40;;;;;;;;;;5007231;28;20809;-80
2021/05/02 07:15:33;;;;;;;9.00;4.70;;;;;;;;;;5010170;28;20503;-75
2021/05/02 07:18:00;;;;;;;6.40;4.23;;;;;;;;;;5014565;28;20508;-82
2021/05/02 07:20:27;;;;;;;6.50;4.40;;;;;;;;;;5010058;28;21352;-86
2021/05/02 07:22:54;;;;;;;8.30;5.30;;;;;;;;;;5011268;28;20443;-79
2021/05/02 07:25:23;;;;;;;6.50;4.43;;;;;;;;;;5011522;28;20848;-78
2021/05/02 07:27:50;;;;;;;7.60;4.60;;;;;;;;;;5012202;28;20812;-81
2021/05/02 07:30:18;;;;;;;8.00;4.47;;;;;;;;;;5008658;28;20796;-81
2021/05/02 07:32:45;;;;;;;6.03;3.80;;;;;;;;;;5005281;28;20522;-84
2021/05/02 07:35:12;;;;;;;5.30;4.10;;;;;;;;;;5007717;28;20482;-79
2021/05/02 07:37:39;;;;;;;6.50;3.70;;;;;;;;;;5008751;28;20891;-82
2021/05/02 07:40:06;;;;;;;4.63;3.47;;;;;;;;;;5009491;28;20448;-79
2021/05/02 07:42:34;;;;;;;8.20;3.67;;;;;;;;;;5008600;28;20454;-81
2021/05/02 07:45:01;;;;;;;4.43;3.00;;;;;;;;;;5011590;28;20446;-79
2021/05/02 07:47:28;;;;;;;5.93;3.17;;;;;;;;;;5011750;28;20959;-81
2021/05/02 07:49:56;;;;;;;5.93;3.50;;;;;;;;;;5012892;28;20430;-78
2021/05/02 07:52:23;;;;;;;6.70;3.50;;;;;;;;;;5015761;28;20450;-85
2021/05/02 07:54:50;;;;;;;6.90;3.50;;;;;;;;;;5006263;28;20478;-80
2021/05/02 07:57:17;;;;;;;9.07;3.83;;;;;;;;;;5007644;28;20963;-79
2021/05/02 07:59:44;;;;;;;7.73;3.80;;;;;;;;;;5008203;28;20441;-79
2021/05/02 08:02:11;;;;;;;6.67;2.80;;;;;;;;;;5008531;28;20445;-81
2021/05/02 08:04:39;;;;;;;5.90;3.10;;;;;;;;;;5012602;28;20435;-82
2021/05/02 08:07:05;;;;;;;5.23;2.87;;;;;;;;;;5014794;28;20550;-80
2021/05/02 08:09:32;;;;;;;4.60;2.80;;;;;;;;;;5015708;28;20489;-77
2021/05/02 08:11:59;;;;;;;3.20;2.60;;;;;;;;;;4996534;28;20439;-81
2021/05/02 08:14:26;;;;;;;4.40;3.00;;;;;;;;;;5014209;28;20480;-80
2021/05/02 08:16:55;;;;;;;5.73;3.20;;;;;;;;;;5008349;28;20443;-78
2021/05/02 08:19:22;;;;;;;4.83;2.60;;;;;;;;;;4990484;28;21044;-78
2021/05/02 08:21:49;;;;;;;4.57;2.90;;;;;;;;;;5011036;28;20836;-79
2021/05/02 08:24:16;;;;;;;5.27;2.90;;;;;;;;;;5011719;28;20439;-79
2021/05/02 08:26:42;;;;;;;3.87;2.53;;;;;;;;;;5012112;28;20431;-80
2021/05/02 08:29:09;;;;;;;6.43;2.40;;;;;;;;;;5012959;28;20470;-80
2021/05/02 08:31:37;;;;;;;2.57;2.37;;;;;;;;;;5013821;28;20955;-78
2021/05/02 08:34:04;;;;;;;4.43;3.07;;;;;;;;;;4996320;28;20443;-79
2021/05/02 08:36:31;;;;;;;6.50;3.90;;;;;;;;;;5013893;28;20589;-80
2021/05/02 08:38:59;;;;;;;6.10;3.80;;;;;;;;;;5011228;28;20458;-79
2021/05/02 08:41:26;;;;;;;6.03;3.93;;;;;;;;;;5008030;28;20925;-80
2021/05/02 08:43:54;;;;;;;5.67;4.40;;;;;;;;;;5010534;28;20472;-80
2021/05/02 08:46:21;;;;;;;7.80;5.33;;;;;;;;;;5011263;28;21015;-78
2021/05/02 08:48:48;;;;;;;3.13;2.70;;;;;;;;;;5011609;28;20463;-79
2021/05/02 08:51:16;;;;;;;6.30;4.23;;;;;;;;;;5012162;28;20842;-79
2021/05/02 08:53:43;;;;;;;4.30;2.70;;;;;;;;;;5013769;28;21086;-79
2021/05/02 08:56:10;;;;;;;3.53;2.60;;;;;;;;;;5013560;28;20487;-79
2021/05/02 08:58:37;;;;;;;2.93;2.50;;;;;;;;;;5012736;28;21086;-77
2021/05/02 09:01:04;;;;;;;10.40;3.20;;;;;;;;;;5012509;28;20922;-78
2021/05/02 09:03:40;;;;;;;8.47;3.13;;;;;;;;;;5007837;28;20793;-79
2021/05/02 09:06:15;;;;;;;6.07;3.77;;;;;;;;;;5010229;28;20434;-80
2021/05/02 09:08:42;;;;;;;7.57;3.83;;;;;;;;;;5011580;28;20470;-79
2021/05/02 09:11:09;;;;;;;5.50;3.97;;;;;;;;;;5011015;28;20443;-80
2021/05/02 09:13:39;;;;;;;4.70;3.60;;;;;;;;;;5011954;28;20472;-78
2021/05/02 09:16:07;;;;;;;8.90;4.53;;;;;;;;;;4993464;28;20522;-81
2021/05/02 09:18:36;;;;;;;8.03;3.37;;;;;;;;;;4993644;28;20498;-80
2021/05/02 09:21:04;;;;;;;5.80;3.13;;;;;;;;;;4993452;28;20506;-80
2021/05/02 09:23:38;;;;;;;5.93;2.80;;;;;;;;;;5011007;28;20465;-81
2021/05/02 09:26:06;;;;;;;4.77;2.83;;;;;;;;;;4988662;28;21634;-78
2021/05/02 09:28:48;;;;;;;4.83;2.80;;;;;;;;;;4990993;28;20817;-79
2021/05/02 09:31:16;;;;;;;6.63;3.03;;;;;;;;;;4985413;28;20454;-79
2021/05/02 09:33:42;;;;;;;7.23;3.20;;;;;;;;;;5010157;28;20585;-80
2021/05/02 09:36:10;;;;;;;5.67;4.27;;;;;;;;;;5011116;28;20490;-79
2021/05/02 09:38:37;;;;;;;5.53;3.40;;;;;;;;;;4992769;28;20542;-82
2021/05/02 09:41:05;;;;;;;6.47;3.37;;;;;;;;;;4997069;28;20483;-80
2021/05/02 09:43:35;;;;;;;5.00;3.10;;;;;;;;;;5007528;28;20455;-80
2021/05/02 09:46:23;;;;;;;6.53;4.07;;;;;;;;;;5007856;28;21730;-84
2021/05/02 09:48:50;;;;;;;4.83;2.93;;;;;;;;;;4977226;28;21076;-80
2021/05/02 09:51:17;;;;;;;6.83;3.23;;;;;;;;;;5004151;28;20451;-84
2021/05/02 09:53:58;;;;;;;3.77;3.10;;;;;;;;;;5011169;28;20443;-80
2021/05/02 09:56:31;;;;;;;4.63;3.70;;;;;;;;;;4996351;28;20922;-83
2021/05/02 09:58:58;;;;;;;5.13;2.90;;;;;;;;;;5011933;28;20482;-82
2021/05/02 10:01:24;;;;;;;4.53;2.90;;;;;;;;;;5012456;28;20446;-79
2021/05/02 10:03:52;;;;;;;5.53;3.80;;;;;;;;;;5012278;28;20455;-83
2021/05/02 10:06:29;;;;;;;2.90;2.60;;;;;;;;;;5011336;28;20501;-80
2021/05/02 10:08:57;;;;;;;5.07;2.80;;;;;;;;;;5006378;28;20506;-79
2021/05/02 10:11:24;;;;;;;5.47;3.10;;;;;;;;;;5008702;28;20494;-83
2021/05/02 10:13:52;;;;;;;6.30;3.57;;;;;;;;;;5011948;28;20470;-80
2021/05/02 10:16:19;;;;;;;5.30;3.53;;;;;;;;;;5011773;28;20482;-79
2021/05/02 10:18:46;;;;;;;4.10;3.00;;;;;;;;;;5012276;28;20466;-81
2021/05/02 10:21:13;;;;;;;3.60;3.00;;;;;;;;;;5011788;28;20479;-80
2021/05/02 10:23:42;;;;;;;5.00;3.10;;;;;;;;;;5014119;28;20451;-77
2021/05/02 10:26:09;;;;;;;5.23;3.33;;;;;;;;;;4994939;28;20858;-81
2021/05/02 10:28:37;;;;;;;4.87;3.33;;;;;;;;;;5011676;28;20467;-84
2021/05/02 10:31:06;;;;;;;3.53;2.53;;;;;;;;;;4988582;28;20554;-81
2021/05/02 10:33:35;;;;;;;9.37;3.30;;;;;;;;;;4988355;28;20438;-82
2021/05/02 10:36:03;;;;;;;3.30;2.53;;;;;;;;;;4992514;28;20486;-81
2021/05/02 10:38:44;;;;;;;2.90;2.60;;;;;;;;;;5009168;28;20467;-84
2021/05/02 10:41:26;;;;;;;4.63;2.90;;;;;;;;;;4967535;28;20935;-81
2021/05/02 10:43:53;;;;;;;6.70;2.90;;;;;;;;;;4953833;28;20527;-79
2021/05/02 10:46:35;;;;;;;3.43;2.30;;;;;;;;;;4962827;28;20445;-77
2021/05/02 10:49:02;;;;;;;2.73;2.50;;;;;;;;;;4964887;28;20460;-82
2021/05/02 10:51:32;;;;;;;3.60;3.10;;;;;;;;;;4967840;28;20455;-87
2021/05/02 10:54:07;;;;;;;3.60;2.67;;;;;;;;;;4967260;28;20540;-84
2021/05/02 10:56:49;;;;;;;5.10;3.30;;;;;;;;;;4968448;28;21010;-81
2021/05/02 10:59:17;;;;;;;4.97;2.20;;;;;;;;;;4969596;28;20460;-81
2021/05/02 11:01:46;;;;;;;5.90;2.63;;;;;;;;;;4970375;28;20437;-82
2021/05/02 11:04:15;;;;;;;4.07;2.43;;;;;;;;;;4953964;28;20523;-78
2021/05/02 11:06:53;;;;;;;2.70;2.20;;;;;;;;;;4946613;28;20445;-79
2021/05/02 11:09:21;;;;;;;8.00;2.97;;;;;;;;;;4964498;28;20476;-82
2021/05/02 11:11:50;;;;;;;4.73;2.53;;;;;;;;;;4965706;28;20439;-78
2021/05/02 11:14:32;;;;;;;6.83;3.00;;;;;;;;;;5009366;28;20890;-79
2021/05/02 11:17:15;;;;;;;3.60;2.73;;;;;;;;;;4995118;28;20556;-81
2021/05/02 11:19:43;;;;;;;4.00;2.60;;;;;;;;;;4991117;28;20478;-78
2021/05/02 11:22:12;;;;;;;5.10;2.50;;;;;;;;;;4992244;28;20451;-80
2021/05/02 11:24:53;;;;;;;3.07;2.57;;;;;;;;;;4991996;28;20809;-81
2021/05/02 11:27:26;;;;;;;3.30;2.70;;;;;;;;;;4997250;28;21158;-82
2021/05/02 11:30:10;;;;;;;7.23;2.37;;;;;;;;;;5005526;28;20513;-83
2021/05/02 11:32:38;;;;;;;4.33;2.90;;;;;;;;;;4988912;28;20447;-83
2021/05/02 11:35:07;;;;;;;3.20;2.70;;;;;;;;;;4972311;28;20436;-81
2021/05/02 11:37:42;;;;;;;3.13;2.77;;;;;;;;;;4972357;28;20472;-82
2021/05/02 11:40:24;;;;;;;5.43;2.80;;;;;;;;;;5007475;28;20442;-81
2021/05/02 11:42:52;;;;;;;4.03;2.63;;;;;;;;;;4999430;28;20449;-82
2021/05/02 11:45:22;;;;;;;6.13;2.80;;;;;;;;;;5015276;28;20447;-81
2021/05/02 11:47:49;;;;;;;5.60;3.20;;;;;;;;;;5015449;28;20553;-85
2021/05/02 11:50:18;;;;;;;5.10;3.80;;;;;;;;;;4995253;28;20944;-80
2021/05/02 11:52:47;;;;;;;3.50;2.63;;;;;;;;;;4991323;28;20444;-86
2021/05/02 11:55:28;;;;;;;3.20;2.67;;;;;;;;;;5011960;28;20483;-84
2021/05/02 11:57:55;;;;;;;8.70;3.10;;;;;;;;;;4998055;28;20942;-77
2021/05/02 12:00:36;;;;;;;4.90;3.53;;;;;;;;;;4995890;28;20459;-80
2021/05/02 12:03:03;;;;;;;2.90;2.57;;;;;;;;;;4993285;28;20968;-84
2021/05/02 12:05:31;;;;;;;4.00;2.47;;;;;;;;;;5010481;28;21063;-86
2021/05/02 12:08:13;;;;;;;3.17;2.87;;;;;;;;;;5014449;28;20459;-87
2021/05/02 12:10:39;;;;;;;3.57;2.33;;;;;;;;;;4999440;28;20792;-81
2021/05/02 12:13:07;;;;;;;4.20;3.27;;;;;;;;;;4994321;28;20924;-83
2021/05/02 12:15:34;;;;;;;3.73;2.80;;;;;;;;;;4990250;28;20493;-81
2021/05/02 12:18:01;;;;;;;3.37;2.60;;;;;;;;;;5010912;28;20832;-81
2021/05/02 12:20:28;;;;;;;2.60;2.40;;;;;;;;;;4994946;28;20446;-79
2021/05/02 12:22:56;;;;;;;4.77;3.40;;;;;;;;;;5012468;28;20924;-80
2021/05/02 12:25:23;;;;;;;4.53;2.90;;;;;;;;;;5013649;28;20780;-82
2021/05/02 12:27:58;;;;;;;6.60;3.13;;;;;;;;;;5015171;28;20503;-84
2021/05/02 12:30:25;;;;;;;5.73;3.00;;;;;;;;;;5014640;28;21091;-83
2021/05/02 12:32:52;;;;;;;2.53;2.07;;;;;;;;;;5015076;28;20443;-81
2021/05/02 12:35:19;;;;;;;3.10;2.23;;;;;;;;;;5013677;28;21288;-82
2021/05/02 12:37:46;;;;;;;7.10;2.30;;;;;;;;;;5008007;28;20956;-83
2021/05/02 12:40:14;;;;;;;5.33;2.67;;;;;;;;;;5009570;28;20836;-79
2021/05/02 12:42:42;;;;;;;5.20;2.10;;;;;;;;;;5012404;28;20465;-79
2021/05/02 12:45:10;;;;;;;9.03;3.40;;;;;;;;;;4995905;28;20455;-79
2021/05/02 12:47:41;;;;;;;6.63;2.53;;;;;;;;;;4981449;28;21067;-83
2021/05/02 12:50:09;;;;;;;6.63;2.80;;;;;;;;;;5012600;28;20936;-81
2021/05/02 12:52:38;;;;;;;2.30;1.70;;;;;;;;;;5013625;28;20455;-81
2021/05/02 12:55:19;;;;;;;2.60;2.40;;;;;;;;;;4995724;28;20517;-80
2021/05/02 12:57:50;;;;;;;2.10;1.90;;;;;;;;;;4998399;28;20467;-82
2021/05/02 13:00:20;;;;;;;3.60;2.20;;;;;;;;;;5008534;28;20580;-83
2021/05/02 13:02:47;;;;;;;3.33;2.23;;;;;;;;;;5008359;28;20451;-80
2021/05/02 13:05:14;;;;;;;3.70;2.07;;;;;;;;;;5011045;28;20463;-80
2021/05/02 13:07:42;;;;;;;4.60;2.10;;;;;;;;;;5010216;28;20891;-80
2021/05/02 13:10:10;;;;;;;5.37;2.60;;;;;;;;;;5011816;28;20443;-82
2021/05/02 13:12:52;;;;;;;4.43;2.10;;;;;;;;;;5012075;28;20497;-81
2021/05/02 13:15:20;;;;;;;4.80;2.90;;;;;;;;;;4993622;28;20541;-80
2021/05/02 13:18:03;;;;;;;3.40;2.47;;;;;;;;;;4993937;28;20534;-82
2021/05/02 13:20:44;;;;;;;9.07;3.77;;;;;;;;;;4978668;28;20451;-81
2021/05/02 13:23:11;;;;;;;5.00;2.97;;;;;;;;;;5004839;28;20434;-82
2021/05/02 13:25:38;;;;;;;7.37;2.87;;;;;;;;;;5007155;28;20435;-83
2021/05/02 13:28:08;;;;;;;7.53;4.27;;;;;;;;;;5010288;28;20517;-81
2021/05/02 13:30:38;;;;;;;7.63;2.53;;;;;;;;;;5010665;28;20431;-80
2021/05/02 13:33:07;;;;;;;6.83;2.67;;;;;;;;;;4993172;28;20823;-83
2021/05/02 13:35:34;;;;;;;9.20;2.60;;;;;;;;;;5008122;28;20489;-81
2021/05/02 13:38:02;;;;;;;3.47;2.57;;;;;;;;;;4988720;28;20451;-80
2021/05/02 13:40:29;;;;;;;5.97;2.60;;;;;;;;;;4992415;28;20770;-80
2021/05/02 13:42:56;;;;;;;2.87;2.57;;;;;;;;;;4993415;28;20534;-78
2021/05/02 13:45:23;;;;;;;6.13;2.50;;;;;;;;;;5010618;28;20485;-83
2021/05/02 13:47:51;;;;;;;3.13;2.17;;;;;;;;;;4993551;28;20493;-78
2021/05/02 13:50:18;;;;;;;4.80;2.63;;;;;;;;;;5012751;28;20500;-79
2021/05/02 13:52:45;;;;;;;4.97;3.70;;;;;;;;;;4995027;28;20474;-80
2021/05/02 13:55:14;;;;;;;5.53;3.80;;;;;;;;;;4995358;28;20451;-77
2021/05/02 13:57:42;;;;;;;7.50;2.87;;;;;;;;;;5010379;28;20494;-81
2021/05/02 14:00:12;;;;;;;4.23;2.90;;;;;;;;;;4988288;28;20443;-81
2021/05/02 14:02:39;;;;;;;5.10;3.47;;;;;;;;;;5008451;28;20450;-79
2021/05/02 14:05:08;;;;;;;4.00;3.00;;;;;;;;;;5010044;28;20442;-80
2021/05/02 14:07:35;;;;;;;3.93;2.77;;;;;;;;;;5009729;28;21018;-82
2021/05/02 14:10:01;;;;;;;6.27;2.90;;;;;;;;;;5010533;28;20952;-79
2021/05/02 14:12:28;;;;;;;4.33;2.83;;;;;;;;;;5012563;28;20450;-81
2021/05/02 14:14:55;;;;;;;9.30;3.40;;;;;;;;;;5012425;28;20447;-82
2021/05/02 14:17:24;;;;;;;3.40;2.43;;;;;;;;;;5012029;28;20960;-80
2021/05/02 14:19:51;;;;;;;4.00;3.03;;;;;;;;;;5015149;28;20435;-80
2021/05/02 14:22:20;;;;;;;8.87;2.50;;;;;;;;;;5007371;28;20447;-78
2021/05/02 14:24:47;;;;;;;7.40;4.43;;;;;;;;;;5012155;28;20439;-78
2021/05/02 14:27:14;;;;;;;6.47;4.97;;;;;;;;;;5012506;28;20445;-77
2021/05/02 14:29:41;;;;;;;4.13;2.90;;;;;;;;;;5010946;28;20467;-79
2021/05/02 14:32:08;;;;;;;5.07;2.90;;;;;;;;;;4993258;28;20522;-77
2021/05/02 14:34:37;;;;;;;3.40;3.10;;;;;;;;;;5012071;28;20463;-79
2021/05/02 14:37:06;;;;;;;3.83;2.67;;;;;;;;;;5012021;28;20828;-79
2021/05/02 14:39:35;;;;;;;5.23;3.50;;;;;;;;;;4994218;28;20462;-80
2021/05/02 14:42:02;;;;;;;5.33;4.70;;;;;;;;;;4993591;28;20447;-79